Time;durP1;ratioP1;P1;durP2;ratioP2;P2;SDS_P1;SDS_P2;PMS_P1;PMS_P2;Temp;Humidity;BMP_temperature;BMP_pressure;BME280_temperature;BME280_humidity;BME280_pressure;Samples;Min_cycle;Max_cycle;Signal;HPM_P1;HPM_P2
2022/07/14 00:00:45;;;;;;;;;;;21.90;61.00;;;;;;5073496;28;19909;-73
2022/07/14 00:03:10;;;;;;;;;;;21.90;61.10;;;;;;5073453;28;19954;-73
2022/07/14 00:05:36;;;;;;;;;;;21.90;61.00;;;;;;5073232;28;19934;-73
2022/07/14 00:08:02;;;;;;;;;;;21.90;61.00;;;;;;5074741;28;19916;-73
2022/07/14 00:10:28;;;;;;;;;;;21.90;61.10;;;;;;5058992;28;20307;-73
2022/07/14 00:12:53;;;;;;;;;;;21.90;61.20;;;;;;5077041;28;19909;-73
2022/07/14 00:15:19;;;;;;;;;;;21.80;61.00;;;;;;5059189;28;19909;-72
2022/07/14 00:17:44;;;;;;;;;;;21.80;61.00;;;;;;5077195;28;19908;-73
2022/07/14 00:20:10;;;;;;;;;;;21.80;61.20;;;;;;5058839;28;19931;-73
2022/07/14 00:22:36;;;;;;;;;;;21.80;61.20;;;;;;5076976;28;19933;-73
2022/07/14 00:25:02;;;;;;;;;;;21.80;61.50;;;;;;5076713;28;20358;-73
2022/07/14 00:27:27;;;;;;;;;;;21.80;61.10;;;;;;5076609;28;19916;-72
2022/07/14 00:29:53;;;;;;;;;;;21.80;61.20;;;;;;5076583;28;20443;-74
2022/07/14 00:32:18;;;;;;;;;;;21.80;61.40;;;;;;5058805;28;19915;-73
2022/07/14 00:34:44;;;;;;;;;;;21.80;61.40;;;;;;5076724;28;19959;-73
2022/07/14 00:37:10;;;;;;;;;;;21.70;61.20;;;;;;5076500;28;20346;-73
2022/07/14 00:42:30;;;;;;;;;;;21.70;61.30;;;;;;5076703;28;19916;-73
2022/07/14 00:44:55;;;;;;;;;;;21.80;61.30;;;;;;5076506;28;20392;-73
2022/07/14 00:47:21;;;;;;;;;;;21.70;61.40;;;;;;5076310;28;20007;-73
2022/07/14 00:49:46;;;;;;;;;;;21.80;61.60;;;;;;5076370;28;19913;-73
2022/07/14 00:52:12;;;;;;;;;;;21.80;61.40;;;;;;5076208;28;20358;-73
2022/07/14 00:54:37;;;;;;;;;;;21.80;61.90;;;;;;5076274;28;19908;-72
2022/07/14 00:57:03;;;;;;;;;;;21.80;61.60;;;;;;5076278;28;19912;-72
2022/07/14 00:59:28;;;;;;;;;;;21.80;61.50;;;;;;5076359;28;19962;-73
2022/07/14 01:01:54;;;;;;;;;;;21.80;61.70;;;;;;5075778;28;19908;-71
2022/07/14 01:04:19;;;;;;;;;;;21.80;61.40;;;;;;5076254;28;20277;-73
2022/07/14 01:06:45;;;;;;;;;;;21.80;61.60;;;;;;5076168;28;19912;-73
2022/07/14 01:09:11;;;;;;;;;;;21.80;61.50;;;;;;5075740;28;20393;-72
2022/07/14 01:11:36;;;;;;;;;;;21.80;61.60;;;;;;5076032;28;19934;-72
2022/07/14 01:14:03;;;;;;;;;;;21.80;61.50;;;;;;5075974;28;19912;-72
2022/07/14 01:16:29;;;;;;;;;;;21.80;61.40;;;;;;5076354;28;19978;-73
2022/07/14 01:18:55;;;;;;;;;;;21.80;62.10;;;;;;5075266;28;20350;-73
2022/07/14 01:21:20;;;;;;;;;;;21.80;61.40;;;;;;5075240;28;19956;-73
2022/07/14 01:23:46;;;;;;;;;;;21.80;61.60;;;;;;5075711;28;19908;-72
2022/07/14 01:26:11;;;;;;;;;;;21.80;61.50;;;;;;5075535;28;19962;-72
2022/07/14 01:28:37;;;;;;;;;;;21.80;61.40;;;;;;5075626;28;20295;-72
2022/07/14 01:31:03;;;;;;;;;;;21.90;62.40;;;;;;5075649;28;19967;-73
2022/07/14 01:33:29;;;;;;;;;;;21.80;61.50;;;;;;5075781;28;19947;-73
2022/07/14 01:35:54;;;;;;;;;;;21.80;61.70;;;;;;5075296;28;19952;-73
2022/07/14 01:38:20;;;;;;;;;;;21.80;61.40;;;;;;5075509;28;19954;-72
2022/07/14 01:40:45;;;;;;;;;;;21.90;62.10;;;;;;5075314;28;19908;-73
2022/07/14 01:43:11;;;;;;;;;;;21.80;62.00;;;;;;5075844;28;19962;-72
2022/07/14 01:45:36;;;;;;;;;;;21.90;62.10;;;;;;5075504;28;20255;-73
2022/07/14 01:48:02;;;;;;;;;;;21.80;61.90;;;;;;5057225;28;20021;-72
2022/07/14 01:50:27;;;;;;;;;;;21.80;62.20;;;;;;5075164;28;19913;-73
2022/07/14 01:52:53;;;;;;;;;;;21.80;61.70;;;;;;5075361;28;20007;-73
2022/07/14 01:55:19;;;;;;;;;;;21.80;61.70;;;;;;5074981;28;19995;-72
2022/07/14 01:57:44;;;;;;;;;;;21.70;61.80;;;;;;5075446;28;19908;-72
2022/07/14 02:00:10;;;;;;;;;;;21.80;61.90;;;;;;5075623;28;20417;-73
2022/07/14 02:02:36;;;;;;;;;;;21.80;61.60;;;;;;5075101;28;19995;-73
2022/07/14 02:05:02;;;;;;;;;;;21.70;61.80;;;;;;5074994;28;19914;-73
2022/07/14 02:07:27;;;;;;;;;;;21.80;62.00;;;;;;5074840;28;19991;-75
2022/07/14 02:12:37;;;;;;;;;;;21.80;62.30;;;;;;5075248;28;20282;-73
2022/07/14 02:15:03;;;;;;;;;;;21.80;61.70;;;;;;5074689;28;19909;-73
2022/07/14 02:17:28;;;;;;;;;;;21.80;62.30;;;;;;5074870;28;19908;-73
2022/07/14 02:19:54;;;;;;;;;;;21.80;61.80;;;;;;5074639;28;19908;-73
2022/07/14 02:22:19;;;;;;;;;;;21.80;61.60;;;;;;5056756;28;19909;-72
2022/07/14 02:24:45;;;;;;;;;;;21.80;62.50;;;;;;5074432;28;19908;-73
2022/07/14 02:27:10;;;;;;;;;;;21.80;61.80;;;;;;5074319;28;20401;-73
2022/07/14 02:29:36;;;;;;;;;;;21.80;61.80;;;;;;5056599;28;20003;-73
2022/07/14 02:32:01;;;;;;;;;;;21.80;61.90;;;;;;5074472;28;19909;-73
2022/07/14 02:34:27;;;;;;;;;;;21.80;61.80;;;;;;5074713;28;19908;-73
2022/07/14 02:36:53;;;;;;;;;;;21.80;61.70;;;;;;5074380;28;19909;-73
2022/07/14 02:39:18;;;;;;;;;;;21.80;61.70;;;;;;5073932;28;19925;-72
2022/07/14 02:41:44;;;;;;;;;;;21.80;61.70;;;;;;5074295;28;19948;-73
2022/07/14 02:44:09;;;;;;;;;;;21.90;61.70;;;;;;5056319;28;19912;-73
2022/07/14 02:46:35;;;;;;;;;;;21.90;61.70;;;;;;5074296;28;19955;-72
2022/07/14 02:49:01;;;;;;;;;;;21.90;61.60;;;;;;5074123;28;19971;-72
2022/07/14 02:51:26;;;;;;;;;;;21.90;61.60;;;;;;5074343;28;19918;-73
2022/07/14 02:53:52;;;;;;;;;;;21.90;61.50;;;;;;5073884;28;19944;-73
2022/07/14 02:56:17;;;;;;;;;;;21.90;61.60;;;;;;5056768;28;19931;-73
2022/07/14 02:58:43;;;;;;;;;;;21.90;61.60;;;;;;5074063;28;20290;-74
2022/07/14 03:01:09;;;;;;;;;;;22.00;61.40;;;;;;5074182;28;19908;-73
2022/07/14 03:03:35;;;;;;;;;;;21.90;61.40;;;;;;5074004;28;19915;-73
2022/07/14 03:06:14;;;;;;;;;;;22.00;61.40;;;;;;5074102;28;20426;-74
2022/07/14 03:08:40;;;;;;;;;;;22.00;61.90;;;;;;5055758;28;20003;-72
2022/07/14 03:11:06;;;;;;;;;;;22.00;61.40;;;;;;5073767;28;19944;-73
2022/07/14 03:13:31;;;;;;;;;;;22.00;61.50;;;;;;5074107;28;19930;-72
2022/07/14 03:15:58;;;;;;;;;;;22.00;61.80;;;;;;5055879;28;19908;-72
2022/07/14 03:18:24;;;;;;;;;;;21.90;61.70;;;;;;5073759;28;19951;-73
2022/07/14 03:20:50;;;;;;;;;;;21.90;61.70;;;;;;5073881;28;19916;-71
2022/07/14 03:23:16;;;;;;;;;;;21.90;61.70;;;;;;5073852;28;19915;-73
2022/07/14 03:25:42;;;;;;;;;;;21.80;61.60;;;;;;5073872;28;19912;-73
2022/07/14 03:28:07;;;;;;;;;;;21.80;62.00;;;;;;5074103;28;19913;-73
2022/07/14 03:30:33;;;;;;;;;;;21.80;62.20;;;;;;5073920;28;20026;-74
2022/07/14 03:32:58;;;;;;;;;;;21.80;61.70;;;;;;5073831;28;20336;-73
2022/07/14 03:35:24;;;;;;;;;;;21.80;61.60;;;;;;5073532;28;19912;-73
2022/07/14 03:37:49;;;;;;;;;;;21.90;61.90;;;;;;5073948;28;19912;-73
2022/07/14 03:40:15;;;;;;;;;;;21.90;61.80;;;;;;5074162;28;19960;-73
2022/07/14 03:42:41;;;;;;;;;;;21.90;61.80;;;;;;5074457;28;19959;-73
2022/07/14 03:45:06;;;;;;;;;;;21.90;61.70;;;;;;5077770;28;19912;-72
2022/07/14 03:47:32;;;;;;;;;;;21.90;61.60;;;;;;5077327;28;19927;-72
2022/07/14 03:49:58;;;;;;;;;;;21.90;62.10;;;;;;5077290;28;19999;-72
2022/07/14 03:52:24;;;;;;;;;;;21.90;61.70;;;;;;5077547;28;19955;-73
2022/07/14 03:54:50;;;;;;;;;;;21.90;61.70;;;;;;5077924;28;19951;-73
2022/07/14 03:57:15;;;;;;;;;;;21.90;61.70;;;;;;5078140;28;19914;-73
2022/07/14 03:59:41;;;;;;;;;;;21.90;61.70;;;;;;5077504;28;19912;-73
2022/07/14 04:02:11;;;;;;;;;;;21.90;61.60;;;;;;5059264;28;19963;-73
2022/07/14 04:04:37;;;;;;;;;;;21.90;62.60;;;;;;5059318;28;19912;-72
2022/07/14 04:07:02;;;;;;;;;;;21.90;61.70;;;;;;5077112;28;20358;-72
2022/07/14 04:09:28;;;;;;;;;;;21.90;61.80;;;;;;5077118;28;19939;-73
2022/07/14 04:11:53;;;;;;;;;;;21.90;61.60;;;;;;5077112;28;19950;-73
2022/07/14 04:14:19;;;;;;;;;;;21.90;61.70;;;;;;5059210;28;20060;-73
2022/07/14 04:16:45;;;;;;;;;;;21.90;61.70;;;;;;5059109;28;19909;-72
2022/07/14 04:19:10;;;;;;;;;;;21.90;61.70;;;;;;5075823;28;19919;-72
2022/07/14 04:21:36;;;;;;;;;;;21.90;61.70;;;;;;5076770;28;19969;-72
2022/07/14 04:24:03;;;;;;;;;;;21.90;61.50;;;;;;5076849;28;19995;-73
2022/07/14 04:26:29;;;;;;;;;;;22.00;61.60;;;;;;5076944;28;19908;-73
2022/07/14 04:28:55;;;;;;;;;;;22.00;61.50;;;;;;5076678;28;19919;-73
2022/07/14 04:31:20;;;;;;;;;;;22.00;61.50;;;;;;5076498;28;19979;-72
2022/07/14 04:33:46;;;;;;;;;;;22.10;61.60;;;;;;5076716;28;19958;-72
2022/07/14 04:36:11;;;;;;;;;;;22.10;61.40;;;;;;5058759;28;19912;-72
2022/07/14 04:38:37;;;;;;;;;;;22.10;61.30;;;;;;5077046;28;20011;-73
2022/07/14 04:41:03;;;;;;;;;;;22.10;61.40;;;;;;5076851;28;19972;-74
2022/07/14 04:43:28;;;;;;;;;;;22.10;61.40;;;;;;5058499;28;20313;-73
2022/07/14 04:45:54;;;;;;;;;;;22.10;61.60;;;;;;5077037;28;19947;-73
2022/07/14 04:48:20;;;;;;;;;;;22.10;61.30;;;;;;5058053;28;19916;-73
2022/07/14 04:53:29;;;;;;;;;;;22.10;61.10;;;;;;5076153;28;20408;-73
2022/07/14 04:55:55;;;;;;;;;;;22.10;61.10;;;;;;5076259;28;19909;-73
2022/07/14 04:58:24;;;;;;;;;;;22.30;61.20;;;;;;5076270;28;19913;-73
2022/07/14 05:00:49;;;;;;;;;;;22.30;61.20;;;;;;5075985;28;20374;-73
2022/07/14 05:03:15;;;;;;;;;;;22.30;61.10;;;;;;5076089;28;19950;-73
2022/07/14 05:05:40;;;;;;;;;;;22.30;60.90;;;;;;5076138;28;19912;-73
2022/07/14 05:08:06;;;;;;;;;;;22.30;60.90;;;;;;5075883;28;19912;-73
2022/07/14 05:10:32;;;;;;;;;;;22.30;60.90;;;;;;5075831;28;19999;-73
2022/07/14 05:12:57;;;;;;;;;;;22.30;60.80;;;;;;5076089;28;19909;-73
2022/07/14 05:15:23;;;;;;;;;;;22.30;60.90;;;;;;5075868;28;20412;-74
2022/07/14 05:17:48;;;;;;;;;;;22.30;60.90;;;;;;5076274;28;19909;-73
2022/07/14 05:20:14;;;;;;;;;;;22.30;60.90;;;;;;5075598;28;20269;-73
2022/07/14 05:22:40;;;;;;;;;;;22.30;60.80;;;;;;5075716;28;19916;-73
2022/07/14 05:25:07;;;;;;;;;;;22.30;60.80;;;;;;5075751;28;19999;-74
2022/07/14 05:27:32;;;;;;;;;;;22.20;60.80;;;;;;5075777;28;19919;-73
2022/07/14 05:29:58;;;;;;;;;;;22.30;60.80;;;;;;5075410;28;19912;-73
2022/07/14 05:32:23;;;;;;;;;;;22.30;60.80;;;;;;5075606;28;20266;-73
2022/07/14 05:34:49;;;;;;;;;;;22.30;60.90;;;;;;5057664;28;19909;-73
2022/07/14 05:37:15;;;;;;;;;;;22.30;60.70;;;;;;5075681;28;19942;-73
2022/07/14 05:39:40;;;;;;;;;;;22.30;60.80;;;;;;5046662;28;20388;-74
2022/07/14 05:42:06;;;;;;;;;;;22.40;61.20;;;;;;5055589;28;19920;-73
2022/07/14 05:44:33;;;;;;;;;;;21.70;60.10;;;;;;5055179;28;19912;-72
2022/07/14 05:46:58;;;;;;;;;;;22.50;60.20;;;;;;5055117;28;20365;-73
2022/07/14 05:49:24;;;;;;;;;;;22.60;60.20;;;;;;5055392;28;19913;-72
2022/07/14 05:51:49;;;;;;;;;;;22.70;60.00;;;;;;5055757;28;20310;-73
2022/07/14 05:54:15;;;;;;;;;;;22.70;59.80;;;;;;5055478;28;20416;-73
2022/07/14 05:56:40;;;;;;;;;;;22.70;59.70;;;;;;5055043;28;19912;-73
2022/07/14 05:59:06;;;;;;;;;;;22.80;59.70;;;;;;5053666;28;19909;-72
2022/07/14 06:01:33;;;;;;;;;;;22.80;59.50;;;;;;5055154;28;19909;-72
2022/07/14 06:03:58;;;;;;;;;;;22.90;59.50;;;;;;5037104;28;19917;-73
2022/07/14 06:06:24;;;;;;;;;;;22.90;59.30;;;;;;5054629;28;19976;-73
2022/07/14 06:08:50;;;;;;;;;;;22.90;59.10;;;;;;5036865;28;20370;-74
2022/07/14 06:11:16;;;;;;;;;;;22.90;59.10;;;;;;5054822;28;19912;-74
2022/07/14 06:13:42;;;;;;;;;;;22.90;59.10;;;;;;5054863;28;19913;-75
2022/07/14 06:16:08;;;;;;;;;;;22.80;59.10;;;;;;5054845;28;20026;-75
2022/07/14 06:18:33;;;;;;;;;;;22.90;59.10;;;;;;5054647;28;19909;-74
2022/07/14 06:20:59;;;;;;;;;;;22.90;59.10;;;;;;5054703;28;19909;-73
2022/07/14 06:23:24;;;;;;;;;;;23.00;59.10;;;;;;5054701;28;19916;-74
2022/07/14 06:25:50;;;;;;;;;;;23.00;59.10;;;;;;5036479;28;19913;-74
2022/07/14 06:28:16;;;;;;;;;;;23.10;59.00;;;;;;5036425;28;19913;-74
2022/07/14 06:30:41;;;;;;;;;;;23.10;58.90;;;;;;5054615;28;19917;-74
2022/07/14 06:33:07;;;;;;;;;;;23.10;58.80;;;;;;5054697;28;19940;-74
2022/07/14 06:35:32;;;;;;;;;;;23.20;58.70;;;;;;5054116;28;19951;-74
2022/07/14 06:37:58;;;;;;;;;;;23.20;58.60;;;;;;5053223;28;19951;-74
2022/07/14 06:40:23;;;;;;;;;;;23.20;58.50;;;;;;5070356;28;19921;-74
2022/07/14 06:42:49;;;;;;;;;;;23.30;58.40;;;;;;5074228;28;20290;-74
2022/07/14 06:45:15;;;;;;;;;;;23.30;58.30;;;;;;5074401;28;19912;-74
2022/07/14 06:47:40;;;;;;;;;;;23.30;58.20;;;;;;5074161;28;19921;-76
2022/07/14 06:50:06;;;;;;;;;;;23.30;58.00;;;;;;5074533;28;19951;-74
2022/07/14 06:52:32;;;;;;;;;;;23.30;58.00;;;;;;5073956;28;19916;-74
2022/07/14 06:55:00;;;;;;;;;;;23.30;58.20;;;;;;5074181;28;19913;-74
2022/07/14 06:57:26;;;;;;;;;;;23.30;58.10;;;;;;5074117;28;19908;-74
2022/07/14 06:59:52;;;;;;;;;;;23.40;58.10;;;;;;5056190;28;19915;-75
2022/07/14 07:02:19;;;;;;;;;;;23.40;58.00;;;;;;5074065;28;19909;-74
2022/07/14 07:04:46;;;;;;;;;;;23.40;58.10;;;;;;5074136;28;19908;-73
2022/07/14 07:07:12;;;;;;;;;;;23.40;58.10;;;;;;5075606;28;19956;-74
2022/07/14 07:09:37;;;;;;;;;;;23.40;57.80;;;;;;5073850;28;20380;-74
2022/07/14 07:12:03;;;;;;;;;;;23.40;57.70;;;;;;5055662;28;19908;-74
2022/07/14 07:14:29;;;;;;;;;;;23.30;57.50;;;;;;5074586;28;19916;-73
2022/07/14 07:16:54;;;;;;;;;;;23.30;58.50;;;;;;5073411;28;19912;-74
2022/07/14 07:19:20;;;;;;;;;;;23.30;57.90;;;;;;5073757;28;19909;-74
2022/07/14 07:21:46;;;;;;;;;;;23.30;57.90;;;;;;5073864;28;19912;-73
2022/07/14 07:24:11;;;;;;;;;;;23.40;57.80;;;;;;5073855;28;19960;-74
2022/07/14 07:26:38;;;;;;;;;;;23.40;57.60;;;;;;5055860;28;20299;-74
2022/07/14 07:29:04;;;;;;;;;;;23.40;57.50;;;;;;5073679;28;19920;-74
2022/07/14 07:31:30;;;;;;;;;;;23.40;57.60;;;;;;5073699;28;19919;-74
2022/07/14 07:33:56;;;;;;;;;;;23.50;57.70;;;;;;5073931;28;19908;-74
2022/07/14 07:36:21;;;;;;;;;;;23.40;57.50;;;;;;5073806;28;20391;-74
2022/07/14 07:38:47;;;;;;;;;;;23.50;57.40;;;;;;5055779;28;19920;-73
2022/07/14 07:41:12;;;;;;;;;;;23.50;57.20;;;;;;5074173;28;19908;-74
2022/07/14 07:43:38;;;;;;;;;;;23.50;57.20;;;;;;5074094;28;20374;-75
2022/07/14 07:46:05;;;;;;;;;;;23.50;57.20;;;;;;5074096;28;20277;-73
2022/07/14 07:48:30;;;;;;;;;;;23.50;57.10;;;;;;5055839;28;20302;-75
2022/07/14 07:50:56;;;;;;;;;;;23.50;57.20;;;;;;5073599;28;19917;-73
2022/07/14 07:53:22;;;;;;;;;;;23.50;57.20;;;;;;5073391;28;19909;-75
2022/07/14 07:55:48;;;;;;;;;;;23.50;57.00;;;;;;5073309;28;19954;-73
2022/07/14 07:58:14;;;;;;;;;;;23.50;57.00;;;;;;5073583;28;19962;-75
2022/07/14 08:00:39;;;;;;;;;;;23.50;56.80;;;;;;5073309;28;19915;-74
2022/07/14 08:03:05;;;;;;;;;;;23.20;56.60;;;;;;5073775;28;19951;-74
2022/07/14 08:05:31;;;;;;;;;;;23.60;56.90;;;;;;5073574;28;19912;-74
2022/07/14 08:07:57;;;;;;;;;;;23.70;57.00;;;;;;5073258;28;19956;-74
2022/07/14 08:10:22;;;;;;;;;;;23.70;57.00;;;;;;5073079;28;20019;-74
2022/07/14 08:12:48;;;;;;;;;;;23.70;56.80;;;;;;5055633;28;19915;-73
2022/07/14 08:15:14;;;;;;;;;;;23.80;56.70;;;;;;5073347;28;19908;-74
2022/07/14 08:17:40;;;;;;;;;;;23.80;56.40;;;;;;5073400;28;19908;-75
2022/07/14 08:20:08;;;;;;;;;;;23.90;56.40;;;;;;5075234;28;19908;-74
2022/07/14 08:22:34;;;;;;;;;;;23.80;56.50;;;;;;5073227;28;20355;-74
2022/07/14 08:24:59;;;;;;;;;;;23.90;56.50;;;;;;5073342;28;19915;-74
2022/07/14 08:27:26;;;;;;;;;;;23.90;56.50;;;;;;5073618;28;19908;-74
2022/07/14 08:29:52;;;;;;;;;;;23.90;56.30;;;;;;5075458;28;20363;-74
2022/07/14 08:32:32;;;;;;;;;;;23.90;56.30;;;;;;5076806;28;19909;-73
2022/07/14 08:34:59;;;;;;;;;;;23.90;56.40;;;;;;5076860;28;20297;-74
2022/07/14 08:37:24;;;;;;;;;;;23.90;56.30;;;;;;5058332;28;19935;-74
2022/07/14 08:39:50;;;;;;;;;;;24.00;56.30;;;;;;5046925;28;19925;-74
2022/07/14 08:42:16;;;;;;;;;;;24.00;56.10;;;;;;5056345;28;19915;-74
2022/07/14 08:44:42;;;;;;;;;;;24.00;56.10;;;;;;5056652;28;19927;-74
2022/07/14 08:47:08;;;;;;;;;;;24.10;56.00;;;;;;5056305;28;19952;-74
2022/07/14 08:49:34;;;;;;;;;;;24.10;56.00;;;;;;5056168;28;20023;-74
2022/07/14 08:52:00;;;;;;;;;;;24.00;55.70;;;;;;5038444;28;19958;-75
2022/07/14 08:54:26;;;;;;;;;;;24.10;55.80;;;;;;5056407;28;20258;-74
2022/07/14 08:56:51;;;;;;;;;;;24.10;55.90;;;;;;5056246;28;20414;-74
2022/07/14 08:59:17;;;;;;;;;;;24.10;55.90;;;;;;5038437;28;19915;-75
2022/07/14 09:01:45;;;;;;;;;;;24.10;55.60;;;;;;5055996;28;19909;-75
2022/07/14 09:04:12;;;;;;;;;;;24.20;55.70;;;;;;5056203;28;19913;-74
2022/07/14 09:06:48;;;;;;;;;;;24.20;55.70;;;;;;5055709;28;19955;-75
2022/07/14 09:09:15;;;;;;;;;;;24.20;55.60;;;;;;5055754;28;19913;-74
2022/07/14 09:11:50;;;;;;;;;;;24.20;55.60;;;;;;5056142;28;20385;-74
2022/07/14 09:14:15;;;;;;;;;;;24.30;55.50;;;;;;5055920;28;19978;-74
2022/07/14 09:16:41;;;;;;;;;;;24.30;55.50;;;;;;5055794;28;20386;-75
2022/07/14 09:19:08;;;;;;;;;;;24.30;55.40;;;;;;5055779;28;20011;-74
2022/07/14 09:21:34;;;;;;;;;;;24.40;55.40;;;;;;5038211;28;20317;-75
2022/07/14 09:24:00;;;;;;;;;;;24.40;55.30;;;;;;5056014;28;19909;-74
2022/07/14 09:26:26;;;;;;;;;;;24.40;55.30;;;;;;5055787;28;19916;-75
2022/07/14 09:28:52;;;;;;;;;;;24.40;55.30;;;;;;5055622;28;19924;-74
2022/07/14 09:31:23;;;;;;;;;;;24.50;56.00;;;;;;5055876;28;19913;-74
2022/07/14 09:33:52;;;;;;;;;;;24.60;55.30;;;;;;5056835;28;20011;-75
2022/07/14 09:36:31;;;;;;;;;;;24.60;55.10;;;;;;5055663;28;19916;-74
2022/07/14 09:39:07;;;;;;;;;;;24.60;55.00;;;;;;5037483;28;19921;-74
2022/07/14 09:41:36;;;;;;;;;;;24.70;54.90;;;;;;5054328;28;19908;-74
2022/07/14 09:44:06;;;;;;;;;;;24.70;54.80;;;;;;5053919;28;19916;-75
2022/07/14 09:46:47;;;;;;;;;;;24.80;54.90;;;;;;5055318;28;20274;-74
2022/07/14 09:49:13;;;;;;;;;;;24.80;54.60;;;;;;5055242;28;19935;-74
2022/07/14 09:51:52;;;;;;;;;;;25.40;54.90;;;;;;5055002;28;19913;-73
2022/07/14 09:54:38;;;;;;;;;;;24.80;54.60;;;;;;5054933;28;19963;-74
2022/07/14 09:57:08;;;;;;;;;;;24.90;54.50;;;;;;5054401;28;19916;-74
2022/07/14 09:59:43;;;;;;;;;;;24.90;54.30;;;;;;5054976;28;19936;-74
2022/07/14 10:02:11;;;;;;;;;;;24.90;54.20;;;;;;5054741;28;19908;-75
2022/07/14 10:04:36;;;;;;;;;;;25.00;54.20;;;;;;5054676;28;19912;-74
2022/07/14 10:07:02;;;;;;;;;;;25.00;54.00;;;;;;5054637;28;20329;-75
2022/07/14 10:09:29;;;;;;;;;;;25.10;54.10;;;;;;5054886;28;19916;-75
2022/07/14 10:11:54;;;;;;;;;;;25.10;53.90;;;;;;5037156;28;19915;-73
2022/07/14 10:14:21;;;;;;;;;;;25.10;53.80;;;;;;5053774;28;19992;-74
2022/07/14 10:16:46;;;;;;;;;;;25.10;53.70;;;;;;5053337;28;19909;-74
2022/07/14 10:19:12;;;;;;;;;;;25.10;53.80;;;;;;5054721;28;19909;-74
2022/07/14 10:21:38;;;;;;;;;;;25.20;53.80;;;;;;5054471;28;19916;-74
2022/07/14 10:24:04;;;;;;;;;;;25.30;53.70;;;;;;5054640;28;19909;-74
2022/07/14 10:26:29;;;;;;;;;;;25.30;53.70;;;;;;5054693;28;19917;-74
2022/07/14 10:28:55;;;;;;;;;;;25.30;53.30;;;;;;5054373;28;20309;-75
2022/07/14 10:31:26;;;;;;;;;;;25.40;53.30;;;;;;5054448;28;19924;-75
2022/07/14 10:34:11;;;;;;;;;;;25.40;53.30;;;;;;5036775;28;20003;-73
2022/07/14 10:36:43;;;;;;;;;;;25.50;53.30;;;;;;5037474;28;20334;-75
2022/07/14 10:39:27;;;;;;;;;;;25.50;53.30;;;;;;5060205;28;19921;-73
2022/07/14 10:42:08;;;;;;;;;;;25.60;53.10;;;;;;5074088;28;19962;-74
2022/07/14 10:44:35;;;;;;;;;;;25.60;53.00;;;;;;5074833;28;19968;-74
2022/07/14 10:47:08;;;;;;;;;;;25.60;53.00;;;;;;5074442;28;19913;-75
2022/07/14 10:50:02;;;;;;;;;;;25.60;53.00;;;;;;5074458;28;19912;-73
2022/07/14 10:52:29;;;;;;;;;;;25.60;52.90;;;;;;5056091;28;19912;-75
2022/07/14 10:55:13;;;;;;;;;;;25.60;52.80;;;;;;5039458;28;20339;-74
2022/07/14 10:57:39;;;;;;;;;;;25.70;53.00;;;;;;5073967;28;19917;-74
2022/07/14 11:00:06;;;;;;;;;;;25.60;52.80;;;;;;5073852;28;19913;-74
2022/07/14 11:02:33;;;;;;;;;;;25.60;52.90;;;;;;5073907;28;19951;-73
2022/07/14 11:05:04;;;;;;;;;;;25.60;52.90;;;;;;5073910;28;19909;-74
2022/07/14 11:07:33;;;;;;;;;;;25.60;52.80;;;;;;5073726;28;19908;-75
2022/07/14 11:09:58;;;;;;;;;;;25.60;52.80;;;;;;5073561;28;19982;-74
2022/07/14 11:12:24;;;;;;;;;;;25.60;52.70;;;;;;5073949;28;20436;-73
2022/07/14 11:14:49;;;;;;;;;;;25.50;52.80;;;;;;5055864;28;20358;-74
2022/07/14 11:17:34;;;;;;;;;;;25.60;52.90;;;;;;5074110;28;19944;-74
2022/07/14 11:19:59;;;;;;;;;;;25.50;52.90;;;;;;5073725;28;19916;-74
2022/07/14 11:22:25;;;;;;;;;;;25.50;53.10;;;;;;5074100;28;19908;-73
2022/07/14 11:24:51;;;;;;;;;;;25.50;53.10;;;;;;5074233;28;19919;-75
2022/07/14 11:27:27;;;;;;;;;;;25.50;53.10;;;;;;5073858;28;19908;-75
2022/07/14 11:29:54;;;;;;;;;;;25.60;53.10;;;;;;5073760;28;20408;-74
2022/07/14 11:32:33;;;;;;;;;;;25.60;53.00;;;;;;5073967;28;19934;-75
2022/07/14 11:38:12;;;;;;;;;;;25.80;53.10;;;;;;5074000;28;19915;-74
2022/07/14 11:40:44;;;;;;;;;;;25.80;53.00;;;;;;5039882;28;20006;-75
2022/07/14 11:43:28;;;;;;;;;;;25.90;52.80;;;;;;5035781;28;19909;-74
2022/07/14 11:45:58;;;;;;;;;;;26.00;52.70;;;;;;5053596;28;19913;-74
2022/07/14 11:48:36;;;;;;;;;;;26.00;52.70;;;;;;5054242;28;19923;-74
2022/07/14 11:51:03;;;;;;;;;;;26.00;52.60;;;;;;5053542;28;20013;-73
2022/07/14 11:53:29;;;;;;;;;;;26.10;52.80;;;;;;5035661;28;19913;-75
2022/07/14 11:55:54;;;;;;;;;;;26.10;52.70;;;;;;5054945;28;19916;-74
2022/07/14 11:58:23;;;;;;;;;;;26.10;52.70;;;;;;5053584;28;20363;-73
2022/07/14 12:00:55;;;;;;;;;;;26.10;52.60;;;;;;5053200;28;19912;-74
2022/07/14 12:03:21;;;;;;;;;;;26.10;52.60;;;;;;5053551;28;19916;-75
2022/07/14 12:05:50;;;;;;;;;;;26.20;52.60;;;;;;5056764;28;19915;-75
2022/07/14 12:08:20;;;;;;;;;;;26.20;52.60;;;;;;5057478;28;20008;-74
2022/07/14 12:10:45;;;;;;;;;;;26.30;52.50;;;;;;5057032;28;19915;-73
2022/07/14 12:13:11;;;;;;;;;;;26.30;52.50;;;;;;5056953;28;19913;-75
2022/07/14 12:15:38;;;;;;;;;;;26.30;52.40;;;;;;5056973;28;19909;-74
2022/07/14 12:18:04;;;;;;;;;;;26.30;52.40;;;;;;5039008;28;19908;-73
2022/07/14 12:20:37;;;;;;;;;;;26.30;52.50;;;;;;5056617;28;20046;-73
2022/07/14 12:23:03;;;;;;;;;;;26.30;52.50;;;;;;5057081;28;20311;-75
2022/07/14 12:25:33;;;;;;;;;;;26.30;52.50;;;;;;5038950;28;20008;-73
2022/07/14 12:27:59;;;;;;;;;;;26.30;52.50;;;;;;5056731;28;19970;-75
2022/07/14 12:30:40;;;;;;;;;;;26.20;52.40;;;;;;5038960;28;19913;-75
2022/07/14 12:33:05;;;;;;;;;;;26.20;52.50;;;;;;5038592;28;19908;-75
2022/07/14 12:35:31;;;;;;;;;;;26.20;52.60;;;;;;5056876;28;20389;-75
2022/07/14 12:37:56;;;;;;;;;;;26.30;52.60;;;;;;5056470;28;20381;-75
2022/07/14 12:40:22;;;;;;;;;;;26.30;52.50;;;;;;5072352;28;19924;-75
2022/07/14 12:42:48;;;;;;;;;;;26.40;52.50;;;;;;5076571;28;20370;-74
2022/07/14 12:45:13;;;;;;;;;;;26.50;52.50;;;;;;5076941;28;19917;-74
2022/07/14 12:47:49;;;;;;;;;;;26.60;52.50;;;;;;5076426;28;20042;-74
2022/07/14 12:50:21;;;;;;;;;;;26.80;52.30;;;;;;5076503;28;19920;-74
2022/07/14 12:52:50;;;;;;;;;;;26.90;52.20;;;;;;5076265;28;19909;-75
2022/07/14 12:55:31;;;;;;;;;;;26.90;51.90;;;;;;5076423;28;19954;-74
2022/07/14 12:58:06;;;;;;;;;;;27.00;51.80;;;;;;5076343;28;20269;-74
2022/07/14 13:00:32;;;;;;;;;;;27.00;51.70;;;;;;5076317;28;19913;-75
2022/07/14 13:03:11;;;;;;;;;;;27.10;51.80;;;;;;5076165;28;20005;-74
2022/07/14 13:05:37;;;;;;;;;;;27.20;51.70;;;;;;5076281;28;19912;-74
2022/07/14 13:08:22;;;;;;;;;;;27.30;51.70;;;;;;5060089;28;20354;-75
2022/07/14 13:10:57;;;;;;;;;;;27.40;51.40;;;;;;5076067;28;19912;-74
2022/07/14 13:13:33;;;;;;;;;;;27.50;51.30;;;;;;5076021;28;20370;-74
2022/07/14 13:16:13;;;;;;;;;;;27.60;51.20;;;;;;5075950;28;19908;-74
2022/07/14 13:18:58;;;;;;;;;;;27.70;51.00;;;;;;5075611;28;19926;-74
2022/07/14 13:21:43;;;;;;;;;;;27.90;50.90;;;;;;5075997;28;19919;-74
2022/07/14 13:24:16;;;;;;;;;;;28.10;50.70;;;;;;5075581;28;20305;-75
2022/07/14 13:26:42;;;;;;;;;;;28.20;50.50;;;;;;5057679;28;19913;-75
2022/07/14 13:29:08;;;;;;;;;;;28.40;50.40;;;;;;5057696;28;19912;-75
2022/07/14 13:31:34;;;;;;;;;;;28.60;50.30;;;;;;5075726;28;19919;-74
2022/07/14 13:34:00;;;;;;;;;;;28.70;50.10;;;;;;5075555;28;19908;-75
2022/07/14 13:36:26;;;;;;;;;;;28.90;49.90;;;;;;5075234;28;19916;-74
2022/07/14 13:38:52;;;;;;;;;;;28.90;49.60;;;;;;5075383;28;19924;-74
2022/07/14 13:41:18;;;;;;;;;;;28.90;49.60;;;;;;5075516;28;19908;-74
2022/07/14 13:43:44;;;;;;;;;;;29.00;49.50;;;;;;5057271;28;19916;-75
2022/07/14 13:46:11;;;;;;;;;;;29.10;49.10;;;;;;5076203;28;19917;-74
2022/07/14 13:48:36;;;;;;;;;;;29.10;48.90;;;;;;5075169;28;20263;-75
2022/07/14 13:53:49;;;;;;;;;;;28.90;48.90;;;;;;5075389;28;20011;-75
2022/07/14 13:56:15;;;;;;;;;;;28.90;49.00;;;;;;5074991;28;19940;-74
2022/07/14 13:58:40;;;;;;;;;;;28.90;49.60;;;;;;5074791;28;20010;-75
2022/07/14 14:01:06;;;;;;;;;;;29.20;50.10;;;;;;5075026;28;20354;-74
2022/07/14 14:03:32;;;;;;;;;;;29.90;50.70;;;;;;5075032;28;20277;-75
2022/07/14 14:06:06;;;;;;;;;;;30.80;50.80;;;;;;5074930;28;20018;-75
2022/07/14 14:08:32;;;;;;;;;;;31.70;49.60;;;;;;5074806;28;19931;-75
2022/07/14 14:10:58;;;;;;;;;;;32.20;48.80;;;;;;5074559;28;19913;-75
2022/07/14 14:13:25;;;;;;;;;;;32.80;48.00;;;;;;5056847;28;19931;-75
2022/07/14 14:15:50;;;;;;;;;;;33.50;48.00;;;;;;5074726;28;20386;-74
2022/07/14 14:18:16;;;;;;;;;;;34.30;48.40;;;;;;5057446;28;19909;-75
2022/07/14 14:20:42;;;;;;;;;;;35.00;47.60;;;;;;5058706;28;19912;-73
2022/07/14 14:23:08;;;;;;;;;;;35.80;47.30;;;;;;5074715;28;19908;-75
2022/07/14 14:25:34;;;;;;;;;;;36.40;46.60;;;;;;5074224;28;19920;-75
2022/07/14 14:28:01;;;;;;;;;;;37.10;46.40;;;;;;5073699;28;19912;-74
2022/07/14 14:30:26;;;;;;;;;;;37.70;45.10;;;;;;5074476;28;19913;-76